createdAt,value
2022-12-11T00:00:31.887Z,-0.35
2022-12-11T00:06:15.477Z,-0.38
2022-12-11T00:11:36.502Z,-0.38
2022-12-11T00:16:57.381Z,-0.48
2022-12-11T00:22:18.283Z,-0.55
2022-12-11T00:27:39.261Z,-0.51
2022-12-11T00:33:00.378Z,-0.65
2022-12-11T00:38:22.059Z,-0.64
2022-12-11T00:43:43.133Z,-0.57
2022-12-11T00:49:03.721Z,-0.55
2022-12-11T00:54:24.484Z,-0.58
2022-12-11T00:59:45.153Z,-0.53
2022-12-11T01:05:06.384Z,-0.52
2022-12-11T01:10:27.621Z,-0.56
2022-12-11T01:15:48.345Z,-0.55
2022-12-11T01:21:13.529Z,-0.70
2022-12-11T01:26:34.675Z,-0.76
2022-12-11T01:31:55.279Z,-0.76
2022-12-11T01:37:16.092Z,-0.68
2022-12-11T01:42:37.627Z,-0.70
2022-12-11T01:48:03.426Z,-0.69
2022-12-11T01:53:29.680Z,-0.69
2022-12-11T01:58:55.162Z,-0.72
2022-12-11T02:04:16.659Z,-0.62
2022-12-11T02:09:41.081Z,-0.71
2022-12-11T02:15:25.887Z,-0.71
2022-12-11T02:20:58.835Z,-0.78
2022-12-11T02:26:44.061Z,-0.80
2022-12-11T02:32:13.856Z,-0.85
2022-12-11T02:37:37.821Z,-0.84
2022-12-11T02:43:03.981Z,-0.78
2022-12-11T02:48:25.265Z,-0.85
2022-12-11T02:53:47.377Z,-0.85
2022-12-11T02:59:20.596Z,-0.90
2022-12-11T03:04:43.002Z,-0.97
2022-12-11T03:10:07.141Z,-0.90
2022-12-11T03:16:07.116Z,-0.89
2022-12-11T03:21:38.293Z,-0.94
2022-12-11T03:27:13.072Z,-1.00
2022-12-11T03:33:02.458Z,-1.02
2022-12-11T03:38:33.119Z,-1.00
2022-12-11T03:43:57.464Z,-1.10
2022-12-11T03:49:23.228Z,-1.09
2022-12-11T03:54:47.811Z,-1.19
2022-12-11T04:00:11.889Z,-1.32
2022-12-11T04:05:32.704Z,-1.29
2022-12-11T04:11:13.359Z,-1.24
2022-12-11T04:16:34.071Z,-1.12
2022-12-11T04:22:13.157Z,-1.13
2022-12-11T04:27:49.571Z,-1.27
2022-12-11T04:33:10.455Z,-1.31
2022-12-11T04:38:31.118Z,-1.36
2022-12-11T04:43:51.962Z,-1.41
2022-12-11T04:49:13.000Z,-1.42
2022-12-11T04:54:33.794Z,-1.47
2022-12-11T04:59:54.518Z,-1.45
2022-12-11T05:05:15.199Z,-1.50
2022-12-11T05:10:35.958Z,-1.55
2022-12-11T05:15:57.077Z,-1.54
2022-12-11T05:21:17.745Z,-1.61
2022-12-11T05:26:38.348Z,-1.54
2022-12-11T05:31:58.935Z,-1.51
2022-12-11T05:37:19.471Z,-1.64
2022-12-11T05:42:40.162Z,-1.64
2022-12-11T05:48:01.570Z,-1.72
2022-12-11T05:53:22.255Z,-1.66
2022-12-11T05:58:44.485Z,-1.55
2022-12-11T06:04:06.990Z,-1.59
2022-12-11T06:09:27.651Z,-1.57
2022-12-11T06:14:48.226Z,-1.60
2022-12-11T06:20:09.189Z,-1.50
2022-12-11T06:25:31.264Z,-1.50
2022-12-11T06:30:52.349Z,-1.59
2022-12-11T06:36:16.940Z,-1.59
2022-12-11T06:41:38.038Z,-1.60
2022-12-11T06:46:59.129Z,-1.50
2022-12-11T06:52:21.170Z,-1.54
2022-12-11T06:57:42.100Z,-1.60
2022-12-11T07:03:02.997Z,-1.64
2022-12-11T07:08:23.776Z,-1.61
2022-12-11T07:13:44.947Z,-1.64
2022-12-11T07:19:05.799Z,-1.61
2022-12-11T07:24:26.716Z,-1.59
2022-12-11T07:29:47.678Z,-1.05
2022-12-11T07:35:09.485Z,-1.30
2022-12-11T07:40:30.309Z,-1.40
2022-12-11T07:45:51.003Z,-1.44
2022-12-11T07:51:25.104Z,-1.44
2022-12-11T07:56:53.232Z,-1.47
2022-12-11T08:02:14.755Z,-1.42
2022-12-11T08:07:36.180Z,-1.51
2022-12-11T08:12:57.294Z,-1.40
2022-12-11T08:18:18.351Z,-1.38
2022-12-11T08:23:39.435Z,-1.30
2022-12-11T08:29:01.507Z,-1.21
2022-12-11T08:34:22.465Z,-1.31
2022-12-11T08:39:43.870Z,-1.33
2022-12-11T08:45:05.963Z,-1.29
2022-12-11T08:50:26.990Z,-1.19
2022-12-11T08:55:48.074Z,-1.23
2022-12-11T09:01:11.652Z,-1.16
2022-12-11T09:06:33.206Z,-1.14
2022-12-11T09:11:53.847Z,-1.13
2022-12-11T09:17:14.700Z,-1.09
2022-12-11T09:22:35.330Z,-1.15
2022-12-11T09:27:55.976Z,-1.17
2022-12-11T09:33:17.344Z,-1.16
2022-12-11T09:38:38.797Z,-1.26
2022-12-11T09:44:25.995Z,-0.99
2022-12-11T09:49:50.078Z,-0.83
2022-12-11T09:55:20.857Z,-0.96
2022-12-11T10:00:49.605Z,-1.11
2022-12-11T10:06:30.650Z,-0.92
2022-12-11T10:11:56.750Z,-1.03
2022-12-11T10:17:23.496Z,-1.11
2022-12-11T10:22:45.514Z,-1.12
2022-12-11T10:28:15.513Z,-1.12
2022-12-11T10:33:55.505Z,-1.17
2022-12-11T10:39:19.960Z,-1.24
2022-12-11T10:44:41.040Z,-1.24
2022-12-11T10:50:03.483Z,-1.25
2022-12-11T10:55:44.941Z,-1.15
2022-12-11T11:01:14.631Z,-0.99
2022-12-11T11:06:36.309Z,-0.87
2022-12-11T11:11:57.451Z,-0.77
2022-12-11T11:17:18.098Z,-0.79
2022-12-11T11:22:43.882Z,-1.04
2022-12-11T11:28:15.609Z,-1.09
2022-12-11T11:33:45.192Z,-1.24
2022-12-11T11:39:25.897Z,-1.26
2022-12-11T11:45:16.900Z,-1.18
2022-12-11T11:50:43.245Z,-1.21
2022-12-11T11:56:31.622Z,-1.34
2022-12-11T12:01:55.504Z,-1.40
2022-12-11T12:07:39.757Z,-1.38
2022-12-11T12:13:36.946Z,-1.27
2022-12-11T12:19:07.182Z,-0.81
2022-12-11T12:24:55.805Z,-0.48
2022-12-11T12:30:22.365Z,-0.81
2022-12-11T12:36:19.314Z,1.15
2022-12-11T12:42:24.281Z,0.30
2022-12-11T12:47:53.161Z,-0.29
2022-12-11T12:53:19.776Z,-0.70
2022-12-11T12:58:44.865Z,-0.95
2022-12-11T13:04:16.783Z,-1.17
2022-12-11T13:10:23.999Z,-1.21
2022-12-11T13:15:45.281Z,-1.31
2022-12-11T13:21:35.963Z,-1.38
2022-12-11T13:27:07.898Z,-1.53
2022-12-11T13:32:31.077Z,-1.48
2022-12-11T13:37:53.928Z,-1.47
2022-12-11T13:43:26.066Z,-1.41
2022-12-11T13:49:01.098Z,-1.38
2022-12-11T13:54:22.903Z,-1.36
2022-12-11T13:59:49.341Z,-0.90
2022-12-11T14:05:12.677Z,-1.14
2022-12-11T14:10:33.892Z,-1.30
2022-12-11T14:15:55.521Z,-1.45
2022-12-11T14:21:25.026Z,-1.50
2022-12-11T14:26:51.742Z,-1.36
2022-12-11T14:32:36.568Z,-1.40
2022-12-11T14:38:00.639Z,-1.32
2022-12-11T14:43:30.671Z,-1.26
2022-12-11T14:49:00.840Z,-1.32
2022-12-11T14:54:38.771Z,-1.57
2022-12-11T15:00:00.287Z,-1.57
2022-12-11T15:05:21.800Z,-1.42
2022-12-11T15:11:03.224Z,-1.44
2022-12-11T15:16:26.858Z,-1.41
2022-12-11T15:21:48.008Z,-1.35
2022-12-11T15:27:38.676Z,-1.36
2022-12-11T15:33:05.804Z,-0.43
2022-12-11T15:38:40.675Z,0.72
2022-12-11T15:44:03.711Z,0.05
2022-12-11T15:49:24.658Z,-0.41
2022-12-11T15:54:45.623Z,-0.63
2022-12-11T16:00:07.930Z,-0.89
2022-12-11T16:05:28.625Z,-0.96
2022-12-11T16:10:54.438Z,-1.09
2022-12-11T16:16:15.215Z,-1.01
2022-12-11T16:21:35.834Z,-1.09
2022-12-11T16:26:56.466Z,-1.22
2022-12-11T16:32:19.681Z,-1.27
2022-12-11T16:37:40.859Z,-1.41
2022-12-11T16:43:03.580Z,-1.54
2022-12-11T16:48:24.487Z,-1.54
2022-12-11T16:53:46.137Z,-1.67
2022-12-11T16:59:07.870Z,-1.66
2022-12-11T17:04:28.787Z,-1.60
2022-12-11T17:09:50.503Z,-1.61
2022-12-11T17:15:11.271Z,-1.69
2022-12-11T17:20:32.276Z,-1.92
2022-12-11T17:25:55.111Z,-2.04
2022-12-11T17:31:19.048Z,-2.10
2022-12-11T17:36:40.130Z,-2.08
2022-12-11T17:42:00.895Z,-2.17
2022-12-11T17:47:21.949Z,-2.15
2022-12-11T17:52:44.510Z,-2.09
2022-12-11T17:58:05.669Z,-2.06
2022-12-11T18:03:27.655Z,-2.12
2022-12-11T18:08:48.816Z,-2.19
2022-12-11T18:14:16.955Z,-2.26
2022-12-11T18:19:42.813Z,-2.15
2022-12-11T18:25:10.167Z,-1.46
2022-12-11T18:30:32.724Z,-1.83
2022-12-11T18:35:53.369Z,-2.07
2022-12-11T18:41:16.233Z,-2.20
2022-12-11T18:46:37.588Z,-2.24
2022-12-11T18:51:58.427Z,-2.17
2022-12-11T18:57:19.352Z,-2.18
2022-12-11T19:02:41.798Z,-2.27
2022-12-11T19:08:03.561Z,-2.39
2022-12-11T19:13:24.158Z,-2.38
2022-12-11T19:18:45.462Z,-2.43
2022-12-11T19:24:08.130Z,-2.70
2022-12-11T19:29:33.755Z,-2.70
2022-12-11T19:34:54.956Z,-2.71
2022-12-11T19:40:16.445Z,-2.73
2022-12-11T19:45:37.531Z,-2.60
2022-12-11T19:51:10.947Z,-2.40
2022-12-11T19:56:33.201Z,-2.45
2022-12-11T20:01:54.046Z,-2.36
2022-12-11T20:07:14.890Z,-2.40
2022-12-11T20:12:35.317Z,-2.30
2022-12-11T20:17:58.046Z,-1.91
2022-12-11T20:23:21.167Z,-2.17
2022-12-11T20:28:42.769Z,-2.26
2022-12-11T20:34:04.616Z,-2.38
2022-12-11T20:39:25.552Z,-2.25
2022-12-11T20:44:49.255Z,-2.25
2022-12-11T20:50:11.481Z,-2.21
2022-12-11T20:55:32.459Z,-2.32
2022-12-11T21:00:53.332Z,-2.21
2022-12-11T21:06:31.545Z,-2.21
2022-12-11T21:11:53.471Z,-2.04
2022-12-11T21:17:14.482Z,-2.09
2022-12-11T21:22:35.554Z,-2.25
2022-12-11T21:27:56.483Z,-2.52
2022-12-11T21:33:17.606Z,-2.39
2022-12-11T21:38:42.049Z,-2.25
2022-12-11T21:45:25.520Z,-2.40
2022-12-11T21:49:44.273Z,-2.39
2022-12-11T21:55:06.051Z,-2.33
2022-12-11T22:00:28.277Z,-2.31
2022-12-11T22:05:48.852Z,-2.59
2022-12-11T22:11:10.002Z,-2.69
2022-12-11T22:16:30.898Z,-2.68
2022-12-11T22:21:51.553Z,-2.79
2022-12-11T22:27:12.271Z,-2.83
2022-12-11T22:32:32.961Z,-2.87
2022-12-11T22:37:53.838Z,-2.78
2022-12-11T22:43:14.781Z,-2.86
2022-12-11T22:48:35.563Z,-2.81
2022-12-11T22:53:56.305Z,-2.73
2022-12-11T22:59:16.959Z,-2.69
2022-12-11T23:04:37.599Z,-2.61
2022-12-11T23:09:58.587Z,-2.77
2022-12-11T23:15:19.472Z,-2.66
2022-12-11T23:20:40.373Z,-2.64
2022-12-11T23:26:01.380Z,-2.65
2022-12-11T23:31:23.512Z,-2.62
2022-12-11T23:36:44.841Z,-2.68
2022-12-11T23:42:06.094Z,-2.74
2022-12-11T23:47:27.075Z,-2.77
2022-12-11T23:52:47.709Z,-2.84
2022-12-11T23:58:10.604Z,-2.87
